Time;durP1;ratioP1;P1;durP2;ratioP2;P2;SDS_P1;SDS_P2;PMS_P1;PMS_P2;Temp;Humidity;BMP_temperature;BMP_pressure;BME280_temperature;BME280_humidity;BME280_pressure;Samples;Min_cycle;Max_cycle;Signal;HPM_P1;HPM_P2
2022/10/05 00:00:48;;;;;;;9.32;4.28;;;15.10;99.90;;;;;;5080450;28;20401;-82
2022/10/05 00:03:13;;;;;;;8.63;4.32;;;15.10;99.90;;;;;;5094922;28;20039;-82
2022/10/05 00:05:39;;;;;;;10.27;4.13;;;15.10;99.90;;;;;;5075615;28;20138;-82
2022/10/05 00:08:16;;;;;;;7.47;4.07;;;15.10;99.90;;;;;;5064019;28;20156;-82
2022/10/05 00:10:44;;;;;;;10.43;4.78;;;15.10;99.90;;;;;;5101098;28;20044;-82
2022/10/05 00:13:26;;;;;;;9.25;4.43;;;15.10;99.90;;;;;;5080955;28;20047;-82
2022/10/05 00:16:10;;;;;;;7.75;3.63;;;15.10;99.90;;;;;;5096363;28;20079;-83
2022/10/05 00:18:36;;;;;;;9.93;4.00;;;15.10;99.90;;;;;;5094172;28;20095;-82
2022/10/05 00:21:07;;;;;;;10.10;4.63;;;15.10;99.90;;;;;;5063677;28;20067;-83
2022/10/05 00:23:33;;;;;;;7.85;4.03;;;15.10;99.90;;;;;;5081492;28;20043;-83
2022/10/05 00:26:29;;;;;;;7.22;3.67;;;15.10;99.90;;;;;;5073275;28;20039;-83
2022/10/05 00:28:55;;;;;;;6.35;3.78;;;15.10;99.90;;;;;;5080188;28;20078;-83
2022/10/05 00:31:29;;;;;;;7.15;3.90;;;15.10;99.90;;;;;;5062076;28;20044;-83
2022/10/05 00:33:56;;;;;;;8.85;4.28;;;15.10;99.90;;;;;;5078660;28;20046;-82
2022/10/05 00:36:22;;;;;;;9.45;3.95;;;15.10;99.90;;;;;;5062167;28;20106;-82
2022/10/05 00:38:48;;;;;;;8.07;3.88;;;15.10;99.90;;;;;;5074768;28;20055;-81
2022/10/05 00:41:17;;;;;;;10.75;4.05;;;15.10;99.90;;;;;;5075266;28;20040;-82
2022/10/05 00:44:07;;;;;;;6.50;4.47;;;15.10;99.90;;;;;;5079135;28;20028;-81
2022/10/05 00:46:55;;;;;;;9.52;4.00;;;15.10;99.90;;;;;;5084911;28;20040;-81
2022/10/05 00:49:38;;;;;;;6.80;4.63;;;15.10;99.90;;;;;;5081454;28;20054;-82
2022/10/05 00:52:37;;;;;;;6.70;4.13;;;15.10;99.90;;;;;;5082138;28;20107;-82
2022/10/05 00:55:21;;;;;;;10.98;4.35;;;15.10;99.90;;;;;;5094558;28;20125;-83
2022/10/05 00:57:59;;;;;;;8.43;4.15;;;15.10;99.90;;;;;;5086522;28;20047;-83
2022/10/05 01:00:26;;;;;;;8.05;4.32;;;15.20;99.90;;;;;;5082683;28;20112;-82
2022/10/05 01:03:05;;;;;;;6.82;3.90;;;15.10;99.90;;;;;;5081476;28;20062;-82
2022/10/05 01:05:50;;;;;;;8.65;4.95;;;15.10;99.90;;;;;;5096386;28;20056;-82
2022/10/05 01:08:33;;;;;;;8.43;4.15;;;15.10;99.90;;;;;;5080942;28;20044;-82
2022/10/05 01:11:05;;;;;;;9.98;4.57;;;15.10;99.90;;;;;;5088270;28;20094;-82
2022/10/05 01:14:03;;;;;;;9.57;5.05;;;15.10;99.90;;;;;;5095406;28;20039;-82
2022/10/05 01:16:34;;;;;;;8.90;4.82;;;15.10;99.90;;;;;;5090559;28;20040;-82
2022/10/05 01:19:17;;;;;;;8.07;4.17;;;15.10;99.90;;;;;;5080726;28;20040;-82
2022/10/05 01:22:33;;;;;;;12.43;5.07;;;15.10;99.90;;;;;;5082872;28;20341;-82
2022/10/05 01:25:28;;;;;;;10.43;4.40;;;15.10;99.90;;;;;;5101394;27;20043;-82
2022/10/05 01:28:27;;;;;;;7.65;4.68;;;15.10;99.90;;;;;;5044797;27;20056;-82
2022/10/05 01:31:08;;;;;;;11.32;6.10;;;15.10;99.90;;;;;;5078622;28;20391;-82
2022/10/05 01:33:50;;;;;;;6.18;4.40;;;15.10;99.90;;;;;;5092175;28;20044;-82
2022/10/05 01:36:37;;;;;;;7.55;4.82;;;15.10;99.90;;;;;;5085324;28;20051;-82
2022/10/05 01:39:08;;;;;;;9.05;5.10;;;15.00;99.90;;;;;;5110233;28;20043;-82
2022/10/05 01:41:41;;;;;;;10.30;4.90;;;15.00;99.90;;;;;;5088922;28;20037;-82
2022/10/05 01:44:07;;;;;;;9.73;5.57;;;15.00;99.90;;;;;;5080563;28;20036;-82
2022/10/05 01:46:59;;;;;;;9.02;5.20;;;15.00;99.90;;;;;;5085667;28;20160;-82
2022/10/05 01:49:53;;;;;;;12.13;4.95;;;15.00;99.90;;;;;;5103099;28;20048;-81
2022/10/05 01:52:26;;;;;;;12.43;5.15;;;15.00;99.90;;;;;;5084793;28;20036;-82
2022/10/05 01:55:18;;;;;;;11.70;5.28;;;15.00;99.90;;;;;;5091526;28;20036;-81
2022/10/05 01:58:04;;;;;;;9.25;4.93;;;15.00;99.90;;;;;;5081229;28;20047;-82
2022/10/05 02:00:37;;;;;;;11.63;5.28;;;15.00;99.90;;;;;;5072479;28;20048;-82
2022/10/05 02:03:14;;;;;;;11.20;5.53;;;15.00;99.90;;;;;;5095869;28;20056;-82
2022/10/05 02:05:46;;;;;;;9.10;5.50;;;15.00;99.90;;;;;;5083617;28;20616;-82
2022/10/05 02:08:33;;;;;;;8.75;5.40;;;15.00;99.90;;;;;;5082575;28;20048;-82
2022/10/05 02:11:10;;;;;;;11.65;5.05;;;14.90;99.90;;;;;;5082672;28;20100;-82
2022/10/05 02:13:54;;;;;;;8.63;4.63;;;15.00;99.90;;;;;;5084934;28;20082;-82
2022/10/05 02:16:38;;;;;;;8.05;4.70;;;15.00;99.90;;;;;;5077791;28;20062;-82
2022/10/05 02:19:09;;;;;;;7.97;5.10;;;14.90;99.90;;;;;;5080462;28;20052;-81
2022/10/05 02:21:35;;;;;;;9.63;4.87;;;14.90;99.90;;;;;;5084902;28;20066;-83
2022/10/05 02:24:07;;;;;;;7.55;4.57;;;15.00;99.90;;;;;;5087212;28;20040;-82
2022/10/05 02:26:35;;;;;;;11.45;4.78;;;14.90;99.90;;;;;;5099072;28;20036;-82
2022/10/05 02:29:08;;;;;;;10.93;5.25;;;15.00;99.90;;;;;;5080215;28;20055;-82
2022/10/05 02:31:39;;;;;;;8.25;4.88;;;14.90;99.90;;;;;;5081434;28;20053;-81
2022/10/05 02:34:24;;;;;;;9.27;4.97;;;14.90;99.90;;;;;;5077159;28;20046;-83
2022/10/05 02:36:57;;;;;;;9.57;4.57;;;14.90;99.90;;;;;;5082684;28;20050;-81
2022/10/05 02:39:42;;;;;;;8.40;4.13;;;14.90;99.90;;;;;;5085968;28;20041;-82
2022/10/05 02:42:20;;;;;;;7.90;4.80;;;14.90;99.90;;;;;;5082017;28;20053;-81
2022/10/05 02:45:19;;;;;;;9.93;4.28;;;14.90;99.90;;;;;;5084208;28;20044;-81
2022/10/05 02:48:16;;;;;;;7.45;4.85;;;14.90;99.90;;;;;;5097953;28;20047;-82
2022/10/05 02:50:47;;;;;;;8.43;4.53;;;14.90;99.90;;;;;;5071854;28;20040;-82
2022/10/05 02:53:28;;;;;;;12.18;5.40;;;14.90;99.90;;;;;;5080847;28;20036;-82
2022/10/05 02:56:22;;;;;;;5.72;3.85;;;14.80;99.90;;;;;;5087155;28;20043;-81
2022/10/05 02:59:09;;;;;;;7.55;4.38;;;14.90;99.90;;;;;;5082455;28;20047;-82
2022/10/05 03:01:49;;;;;;;10.50;4.72;;;14.80;99.90;;;;;;5077932;28;20040;-81
2022/10/05 03:04:30;;;;;;;6.95;4.40;;;14.80;99.90;;;;;;5082646;28;20039;-82
2022/10/05 03:06:59;;;;;;;8.02;4.47;;;14.90;99.90;;;;;;5085083;28;20601;-82
2022/10/05 03:09:30;;;;;;;7.53;3.85;;;14.90;99.90;;;;;;5079682;28;20067;-83
2022/10/05 03:12:08;;;;;;;7.95;4.30;;;14.90;99.90;;;;;;5082202;28;20089;-82
2022/10/05 03:15:05;;;;;;;9.80;3.78;;;14.90;99.90;;;;;;5078920;28;20118;-83
2022/10/05 03:17:44;;;;;;;9.55;4.32;;;14.80;99.90;;;;;;5079899;28;20044;-81
2022/10/05 03:20:24;;;;;;;10.23;4.68;;;14.80;99.90;;;;;;5079191;28;20040;-82
2022/10/05 03:22:59;;;;;;;6.00;3.58;;;14.80;99.90;;;;;;5079508;28;20066;-82
2022/10/05 03:25:37;;;;;;;9.93;4.50;;;14.80;99.90;;;;;;5079681;28;20063;-82
2022/10/05 03:28:19;;;;;;;11.43;4.75;;;14.80;99.90;;;;;;5078206;28;20044;-82
2022/10/05 03:31:03;;;;;;;9.13;4.72;;;14.80;99.90;;;;;;5080229;28;20067;-82
2022/10/05 03:33:45;;;;;;;9.43;4.40;;;14.80;99.90;;;;;;5074461;28;20036;-81
2022/10/05 03:36:23;;;;;;;7.30;5.03;;;14.70;99.90;;;;;;5085636;28;20051;-82
2022/10/05 03:39:02;;;;;;;6.53;4.15;;;14.70;99.90;;;;;;5083267;28;20047;-82
2022/10/05 03:41:48;;;;;;;7.85;4.40;;;14.70;99.90;;;;;;5099446;28;20063;-82
2022/10/05 03:44:43;;;;;;;10.40;4.57;;;14.60;99.90;;;;;;5096948;28;20056;-82
2022/10/05 03:47:39;;;;;;;10.45;4.85;;;14.60;99.90;;;;;;5085327;28;20103;-80
2022/10/05 03:50:36;;;;;;;10.63;5.22;;;14.60;99.90;;;;;;5087924;28;20075;-82
2022/10/05 03:53:15;;;;;;;8.98;5.00;;;14.60;99.90;;;;;;5101864;28;20047;-81
2022/10/05 03:56:00;;;;;;;9.18;4.88;;;14.60;99.90;;;;;;5087150;28;20055;-82
2022/10/05 03:58:38;;;;;;;12.32;5.30;;;14.70;99.90;;;;;;5086887;28;20129;-82
2022/10/05 04:01:12;;;;;;;10.63;5.05;;;14.70;99.90;;;;;;5079407;28;20052;-81
2022/10/05 04:03:48;;;;;;;10.52;5.18;;;14.70;99.90;;;;;;5083378;28;20039;-83
2022/10/05 04:06:27;;;;;;;10.43;5.00;;;14.70;99.90;;;;;;5083372;28;20027;-83
2022/10/05 04:09:03;;;;;;;9.65;5.72;;;14.70;99.90;;;;;;5082399;28;20078;-83
2022/10/05 04:11:38;;;;;;;9.98;5.70;;;14.70;99.90;;;;;;5082170;28;20056;-81
2022/10/05 04:14:14;;;;;;;11.82;5.47;;;14.70;99.90;;;;;;5083014;28;20044;-83
2022/10/05 04:16:44;;;;;;;9.45;5.22;;;14.80;99.90;;;;;;5080298;28;20048;-82
2022/10/05 04:19:22;;;;;;;11.43;5.90;;;14.70;99.90;;;;;;5085528;28;20127;-82
2022/10/05 04:22:02;;;;;;;8.75;5.10;;;14.70;99.90;;;;;;5097045;28;20058;-83
2022/10/05 04:24:46;;;;;;;9.25;5.28;;;14.70;99.90;;;;;;5101200;28;20036;-81
2022/10/05 04:27:18;;;;;;;8.50;4.45;;;14.70;99.90;;;;;;5099513;28;20103;-84
2022/10/05 04:29:47;;;;;;;;;;;14.70;99.90;;;;;;5083922;28;20052;-83
2022/10/05 04:32:40;;;;;;;10.77;5.20;;;14.70;99.90;;;;;;5100965;28;19923;-82
2022/10/05 04:35:24;;;;;;;9.98;5.60;;;14.70;99.90;;;;;;5080020;28;20478;-83
2022/10/05 04:38:17;;;;;;;11.27;5.72;;;14.70;99.90;;;;;;5097051;28;20052;-82
2022/10/05 04:41:27;;;;;;;9.07;5.07;;;14.70;99.90;;;;;;5078035;28;20036;-83
2022/10/05 04:44:34;;;;;;;9.88;4.90;;;14.60;99.90;;;;;;5056305;28;20076;-84
2022/10/05 04:47:05;;;;;;;12.48;4.88;;;14.60;99.90;;;;;;5074647;28;20212;-82
2022/10/05 04:49:54;;;;;;;12.20;5.65;;;14.60;99.90;;;;;;5085507;28;20036;-81
2022/10/05 04:52:44;;;;;;;10.45;4.90;;;14.50;99.90;;;;;;5090549;28;20055;-82
2022/10/05 04:55:36;;;;;;;8.68;5.13;;;14.50;99.90;;;;;;5097255;28;20088;-82
2022/10/05 04:58:09;;;;;;;;;;;14.40;99.90;;;;;;5085649;28;20142;-82
2022/10/05 05:01:06;;;;;;;13.98;5.40;;;14.40;99.90;;;;;;5082080;28;19931;-85
2022/10/05 05:03:54;;;;;;;9.57;5.15;;;14.40;99.90;;;;;;5089368;28;20059;-82
2022/10/05 05:06:57;;;;;;;9.90;5.10;;;14.40;99.90;;;;;;5087676;28;20072;-82
2022/10/05 05:09:41;;;;;;;15.35;6.20;;;14.30;99.90;;;;;;5086619;28;20099;-81
2022/10/05 05:12:10;;;;;;;10.40;5.72;;;14.30;99.90;;;;;;5090029;28;20123;-82
2022/10/05 05:14:42;;;;;;;13.15;6.10;;;14.30;99.90;;;;;;5087027;28;20402;-82
2022/10/05 05:17:18;;;;;;;9.60;5.60;;;14.20;99.90;;;;;;5103691;28;20051;-82
2022/10/05 05:20:05;;;;;;;12.00;5.80;;;14.30;99.90;;;;;;5083480;28;20047;-82
2022/10/05 05:22:47;;;;;;;12.10;6.15;;;14.20;99.90;;;;;;5089556;28;20047;-82
2022/10/05 05:25:25;;;;;;;13.23;7.07;;;14.20;99.90;;;;;;5084199;28;20119;-82
2022/10/05 05:27:58;;;;;;;13.40;6.95;;;14.30;99.90;;;;;;5092846;28;20036;-82
2022/10/05 05:30:38;;;;;;;10.30;5.85;;;14.20;99.90;;;;;;5084823;28;20145;-82
2022/10/05 05:33:22;;;;;;;13.73;6.47;;;14.20;99.90;;;;;;5089208;28;20039;-82
2022/10/05 05:36:18;;;;;;;16.42;7.68;;;14.20;99.90;;;;;;5088070;28;20039;-83
2022/10/05 05:39:15;;;;;;;9.40;6.15;;;14.30;99.90;;;;;;5087077;28;20048;-82
2022/10/05 05:42:02;;;;;;;10.75;6.65;;;14.20;99.90;;;;;;5076215;28;20130;-85
2022/10/05 05:44:45;;;;;;;11.98;6.25;;;14.30;99.90;;;;;;5092564;28;20055;-82
2022/10/05 05:47:36;;;;;;;12.27;6.57;;;14.30;99.90;;;;;;5099078;28;20051;-82
2022/10/05 05:50:20;;;;;;;9.05;5.50;;;14.30;99.90;;;;;;5084004;28;20055;-82
2022/10/05 05:52:54;;;;;;;12.38;5.90;;;14.30;99.90;;;;;;5082122;28;20126;-83
2022/10/05 05:55:25;;;;;;;11.63;5.70;;;14.30;99.90;;;;;;5082327;28;20036;-82
2022/10/05 05:58:23;;;;;;;12.35;6.25;;;14.30;99.90;;;;;;5083986;28;20086;-83
2022/10/05 06:01:37;;;;;;;14.18;7.10;;;14.20;99.90;;;;;;5082131;28;20060;-82
2022/10/05 06:04:21;;;;;;;11.07;6.45;;;14.30;99.90;;;;;;5078340;28;20067;-82
2022/10/05 06:06:50;;;;;;;12.30;6.90;;;14.30;99.90;;;;;;5080015;28;20068;-82
2022/10/05 06:09:25;;;;;;;12.95;6.60;;;14.30;99.90;;;;;;5079168;28;20108;-82
2022/10/05 06:11:59;;;;;;;14.77;7.45;;;14.30;99.90;;;;;;5063854;28;20049;-81
2022/10/05 06:14:37;;;;;;;11.52;7.10;;;14.30;99.90;;;;;;5080232;28;20062;-81
2022/10/05 06:17:17;;;;;;;13.27;7.15;;;14.30;99.90;;;;;;5081332;28;20070;-82
2022/10/05 06:19:45;;;;;;;14.90;6.40;;;14.30;99.90;;;;;;5083605;28;20044;-82
2022/10/05 06:22:18;;;;;;;15.10;7.03;;;14.20;99.90;;;;;;5082365;28;20105;-82
2022/10/05 06:24:58;;;;;;;12.70;6.57;;;14.30;99.90;;;;;;5083783;28;20391;-82
2022/10/05 06:27:58;;;;;;;12.32;7.07;;;14.30;99.90;;;;;;5082319;28;20205;-81
2022/10/05 06:30:30;;;;;;;13.25;6.88;;;14.40;99.90;;;;;;5082530;28;20051;-82
2022/10/05 06:33:12;;;;;;;11.82;6.55;;;14.40;99.90;;;;;;5100090;28;20052;-82
2022/10/05 06:35:47;;;;;;;;;;;14.40;99.90;;;;;;5083480;28;20494;-82
2022/10/05 06:38:18;;;;;;;13.90;6.55;;;14.40;99.90;;;;;;5097917;28;19935;-82
2022/10/05 06:40:44;;;;;;;11.52;6.75;;;14.50;99.90;;;;;;5083080;28;20054;-82
2022/10/05 06:43:32;;;;;;;13.88;6.43;;;14.50;99.90;;;;;;5082017;28;20067;-82
2022/10/05 06:46:35;;;;;;;9.48;6.43;;;14.50;99.90;;;;;;5082979;28;20051;-82
2022/10/05 06:49:22;;;;;;;14.80;6.70;;;14.50;99.90;;;;;;5082934;28;20044;-82
2022/10/05 06:52:34;;;;;;;10.23;5.80;;;14.50;99.90;;;;;;5079716;28;20048;-82
2022/10/05 06:55:12;;;;;;;11.13;5.95;;;14.50;99.90;;;;;;5072768;28;20142;-82
2022/10/05 06:57:42;;;;;;;13.32;5.95;;;14.60;99.90;;;;;;5081971;28;20100;-82
2022/10/05 07:00:19;;;;;;;10.07;5.70;;;14.60;99.90;;;;;;5095830;28;20047;-82
2022/10/05 07:02:50;;;;;;;8.60;5.68;;;14.60;99.90;;;;;;5102999;28;20130;-84
2022/10/05 07:05:41;;;;;;;9.95;6.55;;;14.70;99.90;;;;;;5101779;28;20040;-83
2022/10/05 07:08:33;;;;;;;10.23;5.32;;;14.60;99.90;;;;;;5102393;28;20054;-82
2022/10/05 07:11:36;;;;;;;9.63;5.55;;;14.70;99.90;;;;;;5081680;28;20059;-81
2022/10/05 07:14:25;;;;;;;10.02;5.40;;;14.70;99.90;;;;;;5082257;28;20111;-82
2022/10/05 07:16:50;;;;;;;9.98;5.85;;;14.70;99.90;;;;;;5081497;28;20817;-83
2022/10/05 07:19:39;;;;;;;8.98;5.75;;;14.80;99.90;;;;;;5081233;28;20048;-82
2022/10/05 07:22:36;;;;;;;12.90;6.18;;;14.80;99.90;;;;;;5074382;28;20048;-82
2022/10/05 07:25:18;;;;;;;8.65;5.78;;;14.80;99.90;;;;;;5102335;28;20040;-82
2022/10/05 07:27:53;;;;;;;;;;;14.90;99.90;;;;;;5103328;28;20039;-81
2022/10/05 07:30:20;;;;;;;10.05;5.10;;;14.90;99.90;;;;;;5093531;28;19924;-82
2022/10/05 07:33:11;;;;;;;9.93;5.38;;;15.00;99.90;;;;;;5091453;28;20149;-81
2022/10/05 07:39:17;;;;;;;9.43;5.68;;;15.10;99.90;;;;;;5117793;28;20047;-81
2022/10/05 07:41:49;;;;;;;9.18;5.20;;;15.20;99.90;;;;;;5116066;28;20067;-81
2022/10/05 07:44:42;;;;;;;10.45;5.20;;;15.20;99.90;;;;;;5099610;28;20036;-81
2022/10/05 07:47:32;;;;;;;8.18;5.32;;;15.30;99.90;;;;;;5101293;28;20039;-82
2022/10/05 07:50:22;;;;;;;9.55;6.05;;;15.30;99.90;;;;;;5102483;28;20067;-82
2022/10/05 07:53:22;;;;;;;8.38;4.97;;;15.40;99.90;;;;;;5101555;28;20050;-82
2022/10/05 07:55:54;;;;;;;7.40;5.50;;;15.40;99.90;;;;;;5117159;28;20075;-82
2022/10/05 07:58:42;;;;;;;8.98;5.55;;;15.40;99.90;;;;;;5101823;28;20122;-81
2022/10/05 08:01:30;;;;;;;10.40;4.82;;;15.50;99.90;;;;;;5101176;28;20079;-81
2022/10/05 08:04:19;;;;;;;7.13;5.00;;;15.50;99.90;;;;;;5097055;28;20044;-81
2022/10/05 08:06:56;;;;;;;7.93;5.40;;;15.50;99.90;;;;;;5075370;28;20051;-82
2022/10/05 08:09:44;;;;;;;7.80;5.53;;;15.50;99.90;;;;;;5080654;28;20086;-81
2022/10/05 08:12:29;;;;;;;9.85;5.15;;;15.50;99.90;;;;;;5081077;28;20080;-81
2022/10/05 08:15:14;;;;;;;11.07;5.40;;;15.60;99.90;;;;;;5086387;28;20111;-82
2022/10/05 08:17:52;;;;;;;8.57;4.60;;;15.50;99.90;;;;;;5116663;28;20079;-82
2022/10/05 08:20:56;;;;;;;6.90;4.50;;;15.60;99.90;;;;;;5101685;28;20380;-81
2022/10/05 08:23:37;;;;;;;8.23;4.68;;;15.60;99.90;;;;;;5080661;28;20089;-81
2022/10/05 08:26:42;;;;;;;8.02;4.90;;;15.70;99.90;;;;;;5112109;28;20056;-82
2022/10/05 08:29:40;;;;;;;8.93;4.75;;;15.70;99.90;;;;;;5093442;28;20112;-82
2022/10/05 08:32:17;;;;;;;8.32;4.72;;;15.80;99.90;;;;;;5119005;28;20052;-82
2022/10/05 08:34:47;;;;;;;6.85;4.57;;;15.90;99.90;;;;;;5100515;28;20047;-82
2022/10/05 08:37:39;;;;;;;10.32;5.30;;;15.90;99.90;;;;;;5108694;28;20077;-82
2022/10/05 08:40:17;;;;;;;7.80;4.22;;;15.90;99.90;;;;;;5101301;28;20581;-82
2022/10/05 08:43:28;;;;;;;8.30;3.80;;;16.00;99.90;;;;;;5117920;28;20044;-81
2022/10/05 08:46:08;;;;;;;6.05;4.10;;;16.00;99.90;;;;;;5060961;28;20060;-81
2022/10/05 08:49:14;;;;;;;11.00;3.80;;;16.10;99.90;;;;;;5081125;28;20040;-81
2022/10/05 08:52:02;;;;;;;7.97;3.90;;;16.10;99.90;;;;;;5097072;28;20036;-82
2022/10/05 08:54:33;;;;;;;4.55;3.35;;;16.20;99.90;;;;;;5081424;28;20044;-82
2022/10/05 08:57:43;;;;;;;5.82;3.50;;;16.10;99.90;;;;;;5079509;28;20066;-82
2022/10/05 09:00:11;;;;;;;8.35;3.70;;;16.20;99.90;;;;;;5075414;28;20074;-81
2022/10/05 09:03:00;;;;;;;12.02;4.35;;;16.30;99.90;;;;;;5094163;28;20048;-83
2022/10/05 09:06:03;;;;;;;4.10;3.00;;;16.30;99.90;;;;;;5080794;28;20063;-81
2022/10/05 09:09:06;;;;;;;7.82;3.85;;;16.30;99.90;;;;;;5088695;28;20106;-82
2022/10/05 09:11:40;;;;;;;4.95;2.95;;;16.40;99.90;;;;;;5101377;28;20142;-81
2022/10/05 09:14:19;;;;;;;3.85;3.45;;;16.30;99.90;;;;;;5101166;28;20040;-83
2022/10/05 09:17:16;;;;;;;5.32;3.03;;;16.40;99.90;;;;;;5100561;28;20043;-82
2022/10/05 09:19:47;;;;;;;3.50;2.72;;;16.40;99.90;;;;;;5099851;28;20482;-82
2022/10/05 09:22:32;;;;;;;3.78;2.60;;;16.40;99.90;;;;;;5117607;28;20047;-83
2022/10/05 09:25:22;;;;;;;4.20;2.78;;;16.50;99.90;;;;;;5118252;28;20065;-82
2022/10/05 09:28:02;;;;;;;2.92;2.53;;;16.50;99.90;;;;;;5100745;28;20035;-82
2022/10/05 09:31:13;;;;;;;3.42;2.67;;;16.50;99.90;;;;;;5063675;28;20052;-84
2022/10/05 09:34:17;;;;;;;4.90;2.78;;;16.50;99.90;;;;;;5089423;28;20099;-83
2022/10/05 09:37:10;;;;;;;3.42;2.92;;;16.50;99.90;;;;;;5086728;28;20043;-83
2022/10/05 09:39:54;;;;;;;5.22;3.22;;;16.50;99.90;;;;;;5091357;28;20079;-81
2022/10/05 09:42:54;;;;;;;4.78;2.75;;;16.50;99.90;;;;;;5097219;28;20070;-81
2022/10/05 09:45:46;;;;;;;4.45;3.05;;;16.50;99.90;;;;;;5064824;28;20410;-82
2022/10/05 09:48:30;;;;;;;5.53;3.55;;;16.40;99.90;;;;;;5097297;28;20049;-82
2022/10/05 09:51:12;;;;;;;3.40;2.78;;;16.50;99.90;;;;;;5099181;28;20052;-82
2022/10/05 09:54:01;;;;;;;5.82;3.08;;;16.50;99.90;;;;;;5104888;28;20044;-82
2022/10/05 09:56:39;;;;;;;5.88;3.15;;;16.50;99.90;;;;;;5083924;28;20084;-82
2022/10/05 09:59:27;;;;;;;5.47;4.28;;;16.50;99.90;;;;;;5121231;28;20422;-81
2022/10/05 10:02:05;;;;;;;4.28;3.03;;;16.50;99.90;;;;;;5120478;28;20059;-83
2022/10/05 10:04:47;;;;;;;6.47;3.88;;;16.50;99.90;;;;;;5103381;28;20043;-83
2022/10/05 10:07:34;;;;;;;4.53;2.88;;;16.50;99.90;;;;;;5104469;28;20071;-82
2022/10/05 10:10:18;;;;;;;4.22;2.72;;;16.50;99.90;;;;;;5116317;28;20507;-83
2022/10/05 10:12:43;;;;;;;5.30;3.22;;;16.60;99.90;;;;;;5082824;28;20059;-81
2022/10/05 10:15:43;;;;;;;4.95;4.00;;;16.50;99.90;;;;;;5101046;28;20036;-82
2022/10/05 10:18:33;;;;;;;5.07;3.13;;;16.60;99.90;;;;;;5083155;28;20580;-82
2022/10/05 10:21:11;;;;;;;6.45;3.50;;;16.60;99.90;;;;;;5098780;28;20506;-82
2022/10/05 10:24:01;;;;;;;5.18;3.63;;;16.60;99.90;;;;;;5084226;28;20055;-83
2022/10/05 10:26:54;;;;;;;5.40;3.40;;;16.60;99.90;;;;;;5082604;28;20139;-82
2022/10/05 10:29:46;;;;;;;4.68;3.53;;;16.70;99.90;;;;;;5083263;28;20048;-81
2022/10/05 10:32:40;;;;;;;4.72;3.22;;;16.70;99.90;;;;;;5099554;28;20103;-82
2022/10/05 10:35:11;;;;;;;4.45;2.97;;;16.70;99.90;;;;;;5102792;28;20044;-82
2022/10/05 10:38:05;;;;;;;4.97;4.35;;;16.70;99.90;;;;;;5103528;28;20047;-83
2022/10/05 10:41:09;;;;;;;7.28;2.85;;;16.80;99.90;;;;;;5100052;28;20063;-82
2022/10/05 10:43:45;;;;;;;3.50;3.20;;;16.80;99.90;;;;;;5100593;28;20103;-83
2022/10/05 10:46:38;;;;;;;4.45;2.72;;;16.80;99.90;;;;;;5103697;28;20408;-83
2022/10/05 10:49:34;;;;;;;3.63;3.30;;;16.90;99.90;;;;;;5104121;28;20074;-83
2022/10/05 10:52:12;;;;;;;4.15;3.35;;;17.00;99.90;;;;;;5092163;28;20044;-82
2022/10/05 10:55:13;;;;;;;3.55;3.05;;;17.00;99.90;;;;;;5084999;28;20040;-83
2022/10/05 10:58:16;;;;;;;5.67;3.90;;;17.10;99.90;;;;;;5103146;28;20058;-82
2022/10/05 11:01:07;;;;;;;5.40;3.15;;;17.20;99.90;;;;;;5102052;28;20123;-82
2022/10/05 11:03:48;;;;;;;3.67;2.35;;;17.30;99.90;;;;;;5100051;28;20052;-82
2022/10/05 11:07:01;;;;;;;5.55;2.83;;;17.30;99.90;;;;;;5103140;28;20043;-83
2022/10/05 11:09:48;;;;;;;2.80;2.30;;;17.40;99.90;;;;;;5118759;28;20047;-83
2022/10/05 11:12:55;;;;;;;4.07;2.03;;;17.40;99.90;;;;;;5099181;28;20090;-81
2022/10/05 11:15:49;;;;;;;4.50;2.28;;;17.60;99.90;;;;;;5067641;28;20063;-82
2022/10/05 11:18:37;;;;;;;5.60;2.67;;;17.70;99.90;;;;;;5061743;28;20045;-83
2022/10/05 11:21:25;;;;;;;3.67;2.50;;;17.70;99.90;;;;;;5061695;28;20057;-82
2022/10/05 11:23:56;;;;;;;2.30;2.03;;;17.70;99.90;;;;;;5096174;28;20070;-82
2022/10/05 11:27:13;;;;;;;3.67;2.75;;;17.70;99.90;;;;;;5101227;28;20047;-83
2022/10/05 11:29:48;;;;;;;3.00;2.63;;;17.60;99.90;;;;;;5084323;28;20052;-83
2022/10/05 11:32:37;;;;;;;7.00;2.30;;;17.60;99.90;;;;;;5119914;28;20054;-82
2022/10/05 11:35:45;;;;;;;6.13;3.08;;;17.60;99.90;;;;;;5083050;28;20074;-82
2022/10/05 11:38:31;;;;;;;3.25;2.20;;;17.60;99.90;;;;;;5077037;28;20114;-82
2022/10/05 11:41:05;;;;;;;3.95;2.72;;;17.50;99.90;;;;;;5077637;28;20109;-83
2022/10/05 11:44:09;;;;;;;3.40;2.40;;;17.50;99.90;;;;;;5092010;28;20600;-83
2022/10/05 11:46:45;;;;;;;5.10;2.67;;;17.50;99.90;;;;;;5085714;28;20051;-83
2022/10/05 11:49:17;;;;;;;5.53;2.97;;;17.50;99.90;;;;;;5085670;28;20048;-83
2022/10/05 11:52:12;;;;;;;3.20;2.80;;;17.40;99.90;;;;;;5080272;28;20111;-83
2022/10/05 11:54:43;;;;;;;11.88;3.22;;;17.40;99.90;;;;;;5081107;28;20062;-82
2022/10/05 11:57:31;;;;;;;6.32;2.60;;;17.40;99.90;;;;;;5081282;28;20055;-82
2022/10/05 12:00:13;;;;;;;6.32;2.78;;;17.40;99.90;;;;;;5080208;28;20056;-84
2022/10/05 12:02:42;;;;;;;;;;;17.30;99.90;;;;;;5082145;28;20071;-83
2022/10/05 12:05:26;;;;;;;3.15;2.45;;;17.30;99.90;;;;;;5097046;28;19975;-82
2022/10/05 12:08:01;;;;;;;3.85;2.55;;;17.20;99.90;;;;;;5100947;28;20042;-83
2022/10/05 12:10:36;;;;;;;4.22;2.92;;;17.20;99.90;;;;;;5118974;28;20849;-82
2022/10/05 12:13:18;;;;;;;5.80;2.67;;;17.10;99.90;;;;;;5100176;28;20039;-83
2022/10/05 12:15:49;;;;;;;10.40;3.58;;;17.20;99.90;;;;;;5112626;28;20040;-83
2022/10/05 12:18:29;;;;;;;4.97;2.88;;;17.10;99.90;;;;;;5085876;28;20051;-83
2022/10/05 12:21:00;;;;;;;4.40;2.67;;;17.10;99.90;;;;;;5081541;28;20496;-84
2022/10/05 12:23:52;;;;;;;3.53;2.70;;;17.10;99.90;;;;;;5091494;28;20039;-84
2022/10/05 12:26:50;;;;;;;4.55;3.15;;;17.10;99.90;;;;;;5085818;28;20312;-84
2022/10/05 12:29:37;;;;;;;6.03;3.10;;;17.10;99.90;;;;;;5102173;28;20610;-83
2022/10/05 12:32:10;;;;;;;4.80;2.70;;;17.20;99.90;;;;;;5094979;28;20056;-83
2022/10/05 12:35:10;;;;;;;4.22;3.13;;;17.20;99.90;;;;;;5080542;28;20048;-83
2022/10/05 12:37:58;;;;;;;8.30;3.13;;;17.20;99.90;;;;;;5105758;28;20044;-84
2022/10/05 12:40:27;;;;;;;3.47;2.45;;;17.20;99.90;;;;;;5101707;28;20043;-84
2022/10/05 12:43:21;;;;;;;4.65;2.80;;;17.20;99.90;;;;;;5117612;28;20124;-84
2022/10/05 12:46:21;;;;;;;12.48;3.22;;;17.20;99.90;;;;;;5102201;28;20108;-83
2022/10/05 12:49:05;;;;;;;6.72;2.30;;;17.30;99.90;;;;;;5081089;28;20046;-83
2022/10/05 12:51:45;;;;;;;6.63;2.75;;;17.30;99.90;;;;;;5096330;28;20052;-84
2022/10/05 12:54:29;;;;;;;4.82;2.65;;;17.40;99.90;;;;;;5089322;28;20040;-83
2022/10/05 12:57:28;;;;;;;7.30;2.60;;;17.40;99.90;;;;;;5077738;28;20055;-83
2022/10/05 13:00:03;;;;;;;3.60;2.33;;;17.40;99.90;;;;;;5100278;28;20047;-82
2022/10/05 13:02:47;;;;;;;5.40;2.50;;;17.40;99.90;;;;;;5093946;28;20058;-83
2022/10/05 13:05:24;;;;;;;5.30;2.60;;;17.50;99.90;;;;;;5079179;28;20046;-83
2022/10/05 13:08:01;;;;;;;3.28;2.58;;;17.60;99.90;;;;;;5089420;28;20127;-84
2022/10/05 13:10:39;;;;;;;4.22;2.50;;;17.60;99.90;;;;;;5093007;28;20054;-83
2022/10/05 13:13:33;;;;;;;8.48;2.35;;;17.60;99.90;;;;;;5095897;28;20061;-84
2022/10/05 13:15:59;;;;;;;6.40;2.67;;;17.70;99.90;;;;;;5103717;28;20070;-83
2022/10/05 13:18:27;;;;;;;4.82;2.35;;;17.70;99.90;;;;;;5100004;28;20048;-83
2022/10/05 13:21:01;;;;;;;4.82;2.13;;;17.70;99.90;;;;;;5087723;28;20046;-84
2022/10/05 13:23:30;;;;;;;3.42;2.28;;;17.80;99.90;;;;;;5094751;28;20039;-84
2022/10/05 13:26:00;;;;;;;2.90;2.17;;;17.90;99.90;;;;;;5083356;28;20056;-83
2022/10/05 13:28:55;;;;;;;7.55;2.78;;;17.90;99.90;;;;;;5084395;28;20055;-84
2022/10/05 13:31:27;;;;;;;3.45;2.58;;;18.00;99.90;;;;;;5090080;28;20077;-84
2022/10/05 13:34:11;;;;;;;4.35;2.40;;;18.10;99.90;;;;;;5112222;28;20067;-83
2022/10/05 13:36:40;;;;;;;5.35;2.40;;;18.20;99.90;;;;;;5095080;28;20079;-84
2022/10/05 13:39:39;;;;;;;5.93;3.17;;;18.20;99.90;;;;;;5092376;28;20490;-83
2022/10/05 13:42:14;;;;;;;6.03;2.30;;;18.30;99.90;;;;;;5087453;28;20040;-84
2022/10/05 13:44:52;;;;;;;4.65;2.50;;;18.30;99.90;;;;;;5089351;28;20120;-83
2022/10/05 13:47:33;;;;;;;47.38;6.00;;;18.40;99.90;;;;;;5091602;28;20501;-83
2022/10/05 13:50:12;;;;;;;6.10;2.30;;;18.30;99.90;;;;;;5092308;28;20057;-85
2022/10/05 13:52:38;;;;;;;4.07;2.00;;;18.40;99.90;;;;;;5088820;28;20071;-84
2022/10/05 13:55:10;;;;;;;4.07;2.08;;;18.40;99.90;;;;;;5087289;28;20051;-83
2022/10/05 13:57:50;;;;;;;3.85;2.40;;;18.40;99.90;;;;;;5104988;28;20039;-82
2022/10/05 14:00:20;;;;;;;3.15;2.35;;;18.40;99.90;;;;;;5103161;28;20056;-83
2022/10/05 14:02:52;;;;;;;4.15;2.05;;;18.30;99.90;;;;;;5093319;28;20047;-83
2022/10/05 14:05:20;;;;;;;;;;;18.30;99.90;;;;;;5086225;28;20478;-82
2022/10/05 14:08:09;;;;;;;5.70;2.58;;;18.20;99.90;;;;;;5102321;28;19920;-82
2022/10/05 14:10:38;;;;;;;7.55;2.08;;;18.20;99.90;;;;;;5085820;28;20052;-83